This is the latest recevied weather packets stored in our database for station/object N7CEE. If no packets are shown the sender has not sent any weather packets the latest 10 day(s).
| Time | Temp. | Humidity | Pressure | Rain* | Wind** | Luminosity | Snow |
|---|---|---|---|---|---|---|---|
| 1777836793 | 21.11° C | 29% | 1024 hPa | 0 mm | - | 921 W/m² | - |
| 1777836489 | 21.11° C | 31% | 1024 hPa | 0 mm | - | 939 W/m² | - |
| 1777836184 | 20.56° C | 28% | 1024 hPa | 0 mm | - | 941 W/m² | - |
| 1777835578 | 20° C | 29% | 1024.1 hPa | 0 mm | - | 620 W/m² | - |
| 1777834059 | 20.56° C | 30% | 1024.5 hPa | 0 mm | - | 190 W/m² | - |
| 1777833452 | 20° C | 30% | 1024.5 hPa | 0 mm | - | 915 W/m² | - |
| 1777833149 | 18.89° C | 31% | 1024.7 hPa | 0 mm | - | 358 W/m² | - |
| 1777832847 | 20.56° C | 29% | 1024.6 hPa | 0 mm | - | 139 W/m² | - |
| 1777832546 | 18.89° C | 33% | 1024.7 hPa | 0 mm | - | 977 W/m² | - |
| 1777831939 | 21.11° C | 29% | 1025 hPa | 0 mm | - | 147 W/m² | - |
| 1777831635 | 20° C | 30% | 1024.9 hPa | 0 mm | - | 944 W/m² | - |
| 1777831334 | 18.89° C | 32% | 1025 hPa | 0 mm | - | 946 W/m² | - |
| 1777830122 | 18.89° C | 33% | 1025.3 hPa | 0 mm | - | 867 W/m² | - |
| 1777829816 | 18.89° C | 31% | 1025.3 hPa | 0 mm | - | 331 W/m² | - |
| 1777828301 | 19.44° C | 34% | 1025.7 hPa | 0 mm | - | 761 W/m² | - |
| 1777827998 | 19.44° C | 33% | 1025.6 hPa | 0 mm | - | 706 W/m² | - |
| 1777827695 | 18.89° C | 34% | 1025.8 hPa | 0 mm | - | 686 W/m² | - |
| 1777827088 | 18.33° C | 35% | 1025.7 hPa | 0 mm | - | 653 W/m² | - |
| 1777826785 | 18.33° C | 35% | 1025.7 hPa | 0 mm | - | 638 W/m² | - |
| 1777826482 | 17.78° C | 36% | 1025.5 hPa | 0 mm | - | 623 W/m² | - |
| 1777826178 | 17.78° C | 36% | 1025.7 hPa | 0 mm | - | 609 W/m² | - |
| 1777825876 | 16.67° C | 37% | 1025.7 hPa | 0 mm | - | 594 W/m² | - |
| 1777825271 | 16.67° C | 40% | 1025.7 hPa | 0 mm | - | 473 W/m² | - |
| 1777824361 | 15.56° C | 41% | 1026.1 hPa | 0 mm | - | 106 W/m² | - |
| 1777824056 | 15° C | 41% | 1026.1 hPa | 0 mm | - | 55 W/m² | - |
* Rain latest hour (hover to see other rain measurements)
** Current wind speed in m/s (hover to see current wind gust speed)